Portada
METAR-TAF:

METAR-TAF

Aeropuertos :

Puerto Carreño, Colombia

Aeropuerto Germán Olano

latitud: 06-10N, longitud: 067-30W, altitud: 55 m

Observación

El informe se hizo hace 37 minutos, a las 15:00 UTC
Viento 6 kt del noroeste
Temperatura 24°C
Humedad 94%
Presión 1011 hPa
Visibilidad 10 km o más
Cielo nuboso a una altura de 1500 ft

METAR: SKPC 201500Z 31006KT 9999 BKN015 24/23 A2986 REDZ

Hora: 10:37 (15:37 UTC)


TAF: falta

Observaciones y pronósticos meteorológicos de más de 4000 aeropuertos (mensajes METAR y TAF).

Los puntos amarillos y rojos representan las estaciones disponibles.

Ponga el ratón en el punto deseado para ver el nombre de la estación.

Haga clic para ver las observaciones y los pronósticos meteorológicos.

Para cambiar el mapa : haga clic en los botones verdes con una cruz de color negro para hacer un zoom, en el botón verde con un guión para alejar o en las flechas verdes para mapas adyacentes.


METAR-TAF: